Detall de PIREP

Printer-friendly versionPDF version

[2014/04/11 17:06:00]
Flight IATA:CT1004
Pilot Number:012
Company ICAO:CAT
Aircraft Type:B738/F
PAX:114
Departing Airport: LIEA
Destination Airport: LJLJ
Alternate Airport:LOWK
Online: VATSIM
Route:MINKA UL5 ROMPO UQ125 ELB UL12 FRZ UM167 CHI UM859 TULIK UP125 ROSKA UM859 BARPI
Flight Level:F360
No Slew and time accel
No pause
Crash detect
Detect pilot in Cockpit between each 30 and 45 minutes
17:06 Zero fuel Weight: 122079 Lbs, Fuel Weight: 20088 Lbs
17:06 VATSIM:LIEA 111650Z VRB02KT CAVOK 17/12 Q1017
17:06 VATSIM:LJLJ 111630Z VRB02KT 9999 FEW033 SCT040 BKN085 12/04 Q1017 NOSIG
17:06 EASTER CHARTER
17:07 Parking Brakes off
17:11 Take-off
17:11 Take off Weight: 141622 Lbs
17:11 Wind: 358º @ 002 Knots Heading: 205º
17:11 POS N40º 37´ 36´´ E008º 17´ 15´´
17:11 Gear Up: 161 Knots
17:11 Flaps:3 at 161 Knots
17:12 Flaps:2 at 186 Knots
17:12 Flaps:1 at 197 Knots
17:12 Flaps:0 at 199 Knots
17:26 Wind:292º@032 Knots Heading: 065º Ground Speed: 485 Knots Altitude 28533 ft
17:32 TOC
17:32 Fuel Weight: 15514 Lb
17:41 Wind:296º@025 Knots Heading: 014º Ground Speed: 457 Knots Altitude 36079 ft
17:56 Wind:301º@019 Knots Heading: 040º Ground Speed: 463 Knots Altitude 36056 ft
18:05 TOD
18:05 Fuel Weight: 12537 Lb
18:11 Wind:313º@018 Knots Heading: 057º Ground Speed: 407 Knots Altitude 22729 ft
18:20 Flaps:1 at 214 Knots
18:20 Flaps:2 at 206 Knots
18:20 Flaps:3 at 200 Knots
18:21 Flaps:4 at 198 Knots
18:21 Gear Down: 194 Knots
18:22 Flaps:5 at 176 Knots
18:22 Flaps:6 at 163 Knots
18:23 Flaps:7 at 152 Knots
18:23 Flaps:8 at 147 Knots
18:26 Wind:266º@001 Knots Heading: 306º Ground Speed: 141 Knots Altitude 2135 ft
18:27 TouchDown:Rate -242 ft/min Speed: 125 Knots
18:27 VATSIM:LJLJ 111800Z 27002KT 9999 FEW033 BKN060 09/06 Q1017 NOSIG
18:27 Land
18:27 Wind:266º@002 Knots
18:27 Heading: 306º
18:27 Flight Duration: 01:16
18:27 Landing Weight: 133462 Lbs
18:27 POS N46º 13´ 20´´ E014º 27´ 37´´
18:29 Parking brakes on
18:29 Block to Block Duration: 01:22
18:29 Final Fuel: 11289 Lbls
18:29 Spent Fuel: 8798 Lbls
18:29 Flight Length: 499 NM
18:29 TOD Land Length: 111 NM

Exportar CSV

Powered by Drupal - Modified by Danger4k